sensor_id;sensor_type;location;lat;lon;timestamp;pressure;altitude;pressure_sealevel;temperature
74485;BMP280;62942;52.462;10.846;2023-06-26T00:00:58;100730;;;
74485;BMP280;62942;52.462;10.846;2023-06-26T00:01:58;100710;;;
74485;BMP280;62942;52.462;10.846;2023-06-26T00:03:08;100720;;;
74485;BMP280;62942;52.462;10.846;2023-06-26T00:04:08;100730;;;
74485;BMP280;62942;52.462;10.846;2023-06-26T00:05:18;100720;;;
74485;BMP280;62942;52.462;10.846;2023-06-26T00:06:28;100720;;;
74485;BMP280;62942;52.462;10.846;2023-06-26T00:07:38;100720;;;
74485;BMP280;62942;52.462;10.846;2023-06-26T00:08:48;100720;;;
74485;BMP280;62942;52.462;10.846;2023-06-26T00:09:48;100710;;;
74485;BMP280;62942;52.462;10.846;2023-06-26T00:10:48;100710;;;
74485;BMP280;62942;52.462;10.846;2023-06-26T00:11:58;100720;;;
74485;BMP280;62942;52.462;10.846;2023-06-26T00:12:59;100700;;;
74485;BMP280;62942;52.462;10.846;2023-06-26T00:14:08;100710;;;
74485;BMP280;62942;52.462;10.846;2023-06-26T00:15:18;100710;;;
74485;BMP280;62942;52.462;10.846;2023-06-26T00:16:18;100710;;;
74485;BMP280;62942;52.462;10.846;2023-06-26T00:17:28;100710;;;
74485;BMP280;62942;52.462;10.846;2023-06-26T00:18:38;100700;;;
74485;BMP280;62942;52.462;10.846;2023-06-26T00:19:38;100710;;;
74485;BMP280;62942;52.462;10.846;2023-06-26T00:20:38;100710;;;
74485;BMP280;62942;52.462;10.846;2023-06-26T00:21:49;100690;;;
74485;BMP280;62942;52.462;10.846;2023-06-26T00:22:48;100710;;;
74485;BMP280;62942;52.462;10.846;2023-06-26T00:23:58;100700;;;
74485;BMP280;62942;52.462;10.846;2023-06-26T00:24:58;100700;;;
74485;BMP280;62942;52.462;10.846;2023-06-26T00:26:08;100710;;;
74485;BMP280;62942;52.462;10.846;2023-06-26T00:27:08;100700;;;
74485;BMP280;62942;52.462;10.846;2023-06-26T00:28:18;100700;;;
74485;BMP280;62942;52.462;10.846;2023-06-26T00:29:28;100700;;;
74485;BMP280;62942;52.462;10.846;2023-06-26T00:30:28;100690;;;
74485;BMP280;62942;52.462;10.846;2023-06-26T00:31:38;100690;;;
74485;BMP280;62942;52.462;10.846;2023-06-26T00:32:48;100700;;;
74485;BMP280;62942;52.462;10.846;2023-06-26T00:33:58;100700;;;
74485;BMP280;62942;52.462;10.846;2023-06-26T00:34:58;100700;;;
74485;BMP280;62942;52.462;10.846;2023-06-26T00:36:08;100700;;;
74485;BMP280;62942;52.462;10.846;2023-06-26T00:37:08;100700;;;
74485;BMP280;62942;52.462;10.846;2023-06-26T00:38:18;100700;;;
74485;BMP280;62942;52.462;10.846;2023-06-26T00:39:28;100710;;;
74485;BMP280;62942;52.462;10.846;2023-06-26T00:40:28;100700;;;
74485;BMP280;62942;52.462;10.846;2023-06-26T00:41:38;100700;;;
74485;BMP280;62942;52.462;10.846;2023-06-26T00:42:49;100690;;;
74485;BMP280;62942;52.462;10.846;2023-06-26T00:43:48;100700;;;
74485;BMP280;62942;52.462;10.846;2023-06-26T00:44:58;100690;;;
74485;BMP280;62942;52.462;10.846;2023-06-26T00:46:09;100700;;;
74485;BMP280;62942;52.462;10.846;2023-06-26T00:47:18;100700;;;
74485;BMP280;62942;52.462;10.846;2023-06-26T00:48:18;100690;;;
74485;BMP280;62942;52.462;10.846;2023-06-26T00:49:28;100690;;;
74485;BMP280;62942;52.462;10.846;2023-06-26T00:50:28;100700;;;
74485;BMP280;62942;52.462;10.846;2023-06-26T00:51:38;100690;;;
74485;BMP280;62942;52.462;10.846;2023-06-26T00:52:38;100690;;;
74485;BMP280;62942;52.462;10.846;2023-06-26T00:53:48;100690;;;
74485;BMP280;62942;52.462;10.846;2023-06-26T00:54:58;100700;;;
74485;BMP280;62942;52.462;10.846;2023-06-26T00:56:08;100690;;;
74485;BMP280;62942;52.462;10.846;2023-06-26T00:57:08;100690;;;
74485;BMP280;62942;52.462;10.846;2023-06-26T00:58:18;100700;;;
74485;BMP280;62942;52.462;10.846;2023-06-26T00:59:28;100690;;;
74485;BMP280;62942;52.462;10.846;2023-06-26T01:00:28;100680;;;
74485;BMP280;62942;52.462;10.846;2023-06-26T01:01:38;100680;;;
74485;BMP280;62942;52.462;10.846;2023-06-26T01:02:48;100680;;;
74485;BMP280;62942;52.462;10.846;2023-06-26T01:03:48;100700;;;
74485;BMP280;62942;52.462;10.846;2023-06-26T01:04:58;100700;;;
74485;BMP280;62942;52.462;10.846;2023-06-26T01:05:58;100680;;;
74485;BMP280;62942;52.462;10.846;2023-06-26T01:07:08;100690;;;
74485;BMP280;62942;52.462;10.846;2023-06-26T01:08:08;100690;;;
74485;BMP280;62942;52.462;10.846;2023-06-26T01:09:08;100690;;;
74485;BMP280;62942;52.462;10.846;2023-06-26T01:10:18;100690;;;
74485;BMP280;62942;52.462;10.846;2023-06-26T01:11:18;100690;;;
74485;BMP280;62942;52.462;10.846;2023-06-26T01:12:28;100690;;;
74485;BMP280;62942;52.462;10.846;2023-06-26T01:13:38;100690;;;
74485;BMP280;62942;52.462;10.846;2023-06-26T01:14:48;100680;;;
74485;BMP280;62942;52.462;10.846;2023-06-26T01:15:48;100680;;;
74485;BMP280;62942;52.462;10.846;2023-06-26T01:16:58;100670;;;
74485;BMP280;62942;52.462;10.846;2023-06-26T01:18:08;100680;;;
74485;BMP280;62942;52.462;10.846;2023-06-26T01:19:19;100680;;;
74485;BMP280;62942;52.462;10.846;2023-06-26T01:20:18;100680;;;
74485;BMP280;62942;52.462;10.846;2023-06-26T01:21:18;100680;;;
74485;BMP280;62942;52.462;10.846;2023-06-26T01:22:31;100680;;;
74485;BMP280;62942;52.462;10.846;2023-06-26T01:23:42;100680;;;
74485;BMP280;62942;52.462;10.846;2023-06-26T01:24:38;100670;;;
74485;BMP280;62942;52.462;10.846;2023-06-26T01:25:40;100670;;;
74485;BMP280;62942;52.462;10.846;2023-06-26T01:26:48;100670;;;
74485;BMP280;62942;52.462;10.846;2023-06-26T01:27:58;100680;;;
74485;BMP280;62942;52.462;10.846;2023-06-26T01:28:58;100680;;;
74485;BMP280;62942;52.462;10.846;2023-06-26T01:30:08;100670;;;
74485;BMP280;62942;52.462;10.846;2023-06-26T01:31:19;100680;;;
74485;BMP280;62942;52.462;10.846;2023-06-26T01:32:28;100670;;;
74485;BMP280;62942;52.462;10.846;2023-06-26T01:33:28;100680;;;
74485;BMP280;62942;52.462;10.846;2023-06-26T01:34:28;100670;;;
74485;BMP280;62942;52.462;10.846;2023-06-26T01:35:38;100670;;;
74485;BMP280;62942;52.462;10.846;2023-06-26T01:36:38;100670;;;
74485;BMP280;62942;52.462;10.846;2023-06-26T01:37:38;100670;;;
74485;BMP280;62942;52.462;10.846;2023-06-26T01:38:48;100670;;;
74485;BMP280;62942;52.462;10.846;2023-06-26T01:39:58;100670;;;
74485;BMP280;62942;52.462;10.846;2023-06-26T01:41:08;100660;;;
74485;BMP280;62942;52.462;10.846;2023-06-26T01:42:08;100660;;;
74485;BMP280;62942;52.462;10.846;2023-06-26T01:43:18;100660;;;
74485;BMP280;62942;52.462;10.846;2023-06-26T01:44:28;100660;;;
74485;BMP280;62942;52.462;10.846;2023-06-26T01:45:28;100650;;;
74485;BMP280;62942;52.462;10.846;2023-06-26T01:46:39;100660;;;
74485;BMP280;62942;52.462;10.846;2023-06-26T01:47:38;100660;;;
74485;BMP280;62942;52.462;10.846;2023-06-26T01:48:39;100660;;;
74485;BMP280;62942;52.462;10.846;2023-06-26T01:49:41;100650;;;
74485;BMP280;62942;52.462;10.846;2023-06-26T01:50:48;100660;;;
74485;BMP280;62942;52.462;10.846;2023-06-26T01:52:00;100660;;;
74485;BMP280;62942;52.462;10.846;2023-06-26T01:52:58;100660;;;
74485;BMP280;62942;52.462;10.846;2023-06-26T01:54:09;100660;;;
74485;BMP280;62942;52.462;10.846;2023-06-26T01:55:21;100650;;;
74485;BMP280;62942;52.462;10.846;2023-06-26T01:56:18;100650;;;
74485;BMP280;62942;52.462;10.846;2023-06-26T01:57:28;100640;;;
74485;BMP280;62942;52.462;10.846;2023-06-26T01:58:28;100650;;;
74485;BMP280;62942;52.462;10.846;2023-06-26T01:59:38;100640;;;
74485;BMP280;62942;52.462;10.846;2023-06-26T02:00:48;100630;;;
74485;BMP280;62942;52.462;10.846;2023-06-26T02:02:00;100650;;;
74485;BMP280;62942;52.462;10.846;2023-06-26T02:03:08;100650;;;
74485;BMP280;62942;52.462;10.846;2023-06-26T02:04:08;100640;;;
74485;BMP280;62942;52.462;10.846;2023-06-26T02:05:08;100640;;;
74485;BMP280;62942;52.462;10.846;2023-06-26T02:06:18;100650;;;
74485;BMP280;62942;52.462;10.846;2023-06-26T02:07:18;100640;;;
74485;BMP280;62942;52.462;10.846;2023-06-26T02:08:28;100640;;;
74485;BMP280;62942;52.462;10.846;2023-06-26T02:09:29;100640;;;
74485;BMP280;62942;52.462;10.846;2023-06-26T02:10:38;100650;;;
74485;BMP280;62942;52.462;10.846;2023-06-26T02:11:48;100640;;;
74485;BMP280;62942;52.462;10.846;2023-06-26T02:12:48;100640;;;
74485;BMP280;62942;52.462;10.846;2023-06-26T02:13:58;100640;;;
74485;BMP280;62942;52.462;10.846;2023-06-26T02:15:08;100640;;;
74485;BMP280;62942;52.462;10.846;2023-06-26T02:16:18;100630;;;
74485;BMP280;62942;52.462;10.846;2023-06-26T02:17:18;100640;;;
74485;BMP280;62942;52.462;10.846;2023-06-26T02:18:28;100640;;;
74485;BMP280;62942;52.462;10.846;2023-06-26T02:19:38;100640;;;
74485;BMP280;62942;52.462;10.846;2023-06-26T02:20:38;100640;;;
74485;BMP280;62942;52.462;10.846;2023-06-26T02:21:38;100640;;;
74485;BMP280;62942;52.462;10.846;2023-06-26T02:22:48;100640;;;
74485;BMP280;62942;52.462;10.846;2023-06-26T02:23:48;100640;;;
74485;BMP280;62942;52.462;10.846;2023-06-26T02:24:48;100640;;;
74485;BMP280;62942;52.462;10.846;2023-06-26T02:25:58;100630;;;
74485;BMP280;62942;52.462;10.846;2023-06-26T02:27:08;100630;;;
74485;BMP280;62942;52.462;10.846;2023-06-26T02:28:18;100630;;;
74485;BMP280;62942;52.462;10.846;2023-06-26T02:29:18;100630;;;
74485;BMP280;62942;52.462;10.846;2023-06-26T02:30:28;100630;;;
74485;BMP280;62942;52.462;10.846;2023-06-26T02:31:38;100630;;;
74485;BMP280;62942;52.462;10.846;2023-06-26T02:32:48;100630;;;
74485;BMP280;62942;52.462;10.846;2023-06-26T02:33:58;100620;;;
74485;BMP280;62942;52.462;10.846;2023-06-26T02:34:58;100620;;;
74485;BMP280;62942;52.462;10.846;2023-06-26T02:36:08;100620;;;
74485;BMP280;62942;52.462;10.846;2023-06-26T02:37:08;100620;;;
74485;BMP280;62942;52.462;10.846;2023-06-26T02:38:18;100620;;;
74485;BMP280;62942;52.462;10.846;2023-06-26T02:39:28;100620;;;
74485;BMP280;62942;52.462;10.846;2023-06-26T02:40:28;100620;;;
74485;BMP280;62942;52.462;10.846;2023-06-26T02:41:28;100620;;;
74485;BMP280;62942;52.462;10.846;2023-06-26T02:42:28;100620;;;
74485;BMP280;62942;52.462;10.846;2023-06-26T02:43:38;100610;;;
74485;BMP280;62942;52.462;10.846;2023-06-26T02:44:38;100620;;;
74485;BMP280;62942;52.462;10.846;2023-06-26T02:45:38;100610;;;
74485;BMP280;62942;52.462;10.846;2023-06-26T02:46:38;100620;;;
74485;BMP280;62942;52.462;10.846;2023-06-26T02:47:48;100610;;;
74485;BMP280;62942;52.462;10.846;2023-06-26T02:48:48;100610;;;
74485;BMP280;62942;52.462;10.846;2023-06-26T02:49:58;100610;;;
74485;BMP280;62942;52.462;10.846;2023-06-26T02:51:08;100610;;;
74485;BMP280;62942;52.462;10.846;2023-06-26T02:52:08;100610;;;
74485;BMP280;62942;52.462;10.846;2023-06-26T02:53:08;100610;;;
74485;BMP280;62942;52.462;10.846;2023-06-26T02:54:18;100610;;;
74485;BMP280;62942;52.462;10.846;2023-06-26T02:55:28;100610;;;
74485;BMP280;62942;52.462;10.846;2023-06-26T02:56:38;100610;;;
74485;BMP280;62942;52.462;10.846;2023-06-26T02:57:38;100610;;;
74485;BMP280;62942;52.462;10.846;2023-06-26T02:58:38;100610;;;
74485;BMP280;62942;52.462;10.846;2023-06-26T02:59:38;100600;;;
74485;BMP280;62942;52.462;10.846;2023-06-26T03:00:48;100610;;;
74485;BMP280;62942;52.462;10.846;2023-06-26T03:01:48;100610;;;
74485;BMP280;62942;52.462;10.846;2023-06-26T03:02:58;100610;;;
74485;BMP280;62942;52.462;10.846;2023-06-26T03:03:58;100610;;;
74485;BMP280;62942;52.462;10.846;2023-06-26T03:05:08;100610;;;
74485;BMP280;62942;52.462;10.846;2023-06-26T03:06:18;100610;;;
74485;BMP280;62942;52.462;10.846;2023-06-26T03:07:18;100600;;;
74485;BMP280;62942;52.462;10.846;2023-06-26T03:08:28;100610;;;
74485;BMP280;62942;52.462;10.846;2023-06-26T03:09:38;100610;;;
74485;BMP280;62942;52.462;10.846;2023-06-26T03:10:48;100610;;;
74485;BMP280;62942;52.462;10.846;2023-06-26T03:11:48;100600;;;
74485;BMP280;62942;52.462;10.846;2023-06-26T03:12:58;100610;;;
74485;BMP280;62942;52.462;10.846;2023-06-26T03:14:08;100610;;;
74485;BMP280;62942;52.462;10.846;2023-06-26T03:15:08;100610;;;
74485;BMP280;62942;52.462;10.846;2023-06-26T03:16:18;100600;;;
74485;BMP280;62942;52.462;10.846;2023-06-26T03:17:28;100610;;;
74485;BMP280;62942;52.462;10.846;2023-06-26T03:18:38;100600;;;
74485;BMP280;62942;52.462;10.846;2023-06-26T03:19:48;100610;;;
74485;BMP280;62942;52.462;10.846;2023-06-26T03:20:58;100600;;;
74485;BMP280;62942;52.462;10.846;2023-06-26T03:22:08;100600;;;
74485;BMP280;62942;52.462;10.846;2023-06-26T03:23:18;100590;;;
74485;BMP280;62942;52.462;10.846;2023-06-26T03:24:18;100590;;;
74485;BMP280;62942;52.462;10.846;2023-06-26T03:25:18;100590;;;
74485;BMP280;62942;52.462;10.846;2023-06-26T03:26:28;100590;;;
74485;BMP280;62942;52.462;10.846;2023-06-26T03:27:38;100580;;;
74485;BMP280;62942;52.462;10.846;2023-06-26T03:28:38;100580;;;
74485;BMP280;62942;52.462;10.846;2023-06-26T03:29:48;100590;;;
74485;BMP280;62942;52.462;10.846;2023-06-26T03:30:48;100590;;;
74485;BMP280;62942;52.462;10.846;2023-06-26T03:31:58;100590;;;
74485;BMP280;62942;52.462;10.846;2023-06-26T03:33:08;100590;;;
74485;BMP280;62942;52.462;10.846;2023-06-26T03:34:18;100590;;;
74485;BMP280;62942;52.462;10.846;2023-06-26T03:35:28;100590;;;
74485;BMP280;62942;52.462;10.846;2023-06-26T03:36:28;100590;;;
74485;BMP280;62942;52.462;10.846;2023-06-26T03:37:38;100590;;;
74485;BMP280;62942;52.462;10.846;2023-06-26T03:38:48;100590;;;
74485;BMP280;62942;52.462;10.846;2023-06-26T03:39:58;100590;;;
74485;BMP280;62942;52.462;10.846;2023-06-26T03:41:08;100590;;;
74485;BMP280;62942;52.462;10.846;2023-06-26T03:42:18;100590;;;
74485;BMP280;62942;52.462;10.846;2023-06-26T03:43:19;100590;;;
74485;BMP280;62942;52.462;10.846;2023-06-26T03:44:28;100590;;;
74485;BMP280;62942;52.462;10.846;2023-06-26T03:45:38;100590;;;
74485;BMP280;62942;52.462;10.846;2023-06-26T03:46:38;100590;;;
74485;BMP280;62942;52.462;10.846;2023-06-26T03:47:48;100590;;;
74485;BMP280;62942;52.462;10.846;2023-06-26T03:48:48;100590;;;
74485;BMP280;62942;52.462;10.846;2023-06-26T03:49:48;100590;;;
74485;BMP280;62942;52.462;10.846;2023-06-26T03:50:58;100580;;;
74485;BMP280;62942;52.462;10.846;2023-06-26T03:51:58;100580;;;
74485;BMP280;62942;52.462;10.846;2023-06-26T03:53:08;100590;;;
74485;BMP280;62942;52.462;10.846;2023-06-26T03:54:18;100570;;;
74485;BMP280;62942;52.462;10.846;2023-06-26T03:55:18;100580;;;
74485;BMP280;62942;52.462;10.846;2023-06-26T03:56:18;100580;;;
74485;BMP280;62942;52.462;10.846;2023-06-26T03:57:28;100580;;;
74485;BMP280;62942;52.462;10.846;2023-06-26T03:58:28;100580;;;
74485;BMP280;62942;52.462;10.846;2023-06-26T03:59:38;100580;;;
74485;BMP280;62942;52.462;10.846;2023-06-26T04:00:48;100570;;;
74485;BMP280;62942;52.462;10.846;2023-06-26T04:01:58;100570;;;
74485;BMP280;62942;52.462;10.846;2023-06-26T04:02:58;100580;;;
74485;BMP280;62942;52.462;10.846;2023-06-26T04:04:08;100570;;;
74485;BMP280;62942;52.462;10.846;2023-06-26T04:05:18;100580;;;
74485;BMP280;62942;52.462;10.846;2023-06-26T04:06:28;100570;;;
74485;BMP280;62942;52.462;10.846;2023-06-26T04:07:28;100570;;;
74485;BMP280;62942;52.462;10.846;2023-06-26T04:08:38;100570;;;
74485;BMP280;62942;52.462;10.846;2023-06-26T04:09:38;100570;;;
74485;BMP280;62942;52.462;10.846;2023-06-26T04:10:48;100560;;;
74485;BMP280;62942;52.462;10.846;2023-06-26T04:11:58;100570;;;
74485;BMP280;62942;52.462;10.846;2023-06-26T04:13:08;100570;;;
74485;BMP280;62942;52.462;10.846;2023-06-26T04:14:08;100570;;;
74485;BMP280;62942;52.462;10.846;2023-06-26T04:15:18;100570;;;
74485;BMP280;62942;52.462;10.846;2023-06-26T04:16:20;100570;;;
74485;BMP280;62942;52.462;10.846;2023-06-26T04:17:28;100560;;;
74485;BMP280;62942;52.462;10.846;2023-06-26T04:18:28;100560;;;
74485;BMP280;62942;52.462;10.846;2023-06-26T04:19:38;100570;;;
74485;BMP280;62942;52.462;10.846;2023-06-26T04:20:38;100570;;;
74485;BMP280;62942;52.462;10.846;2023-06-26T04:21:48;100570;;;
74485;BMP280;62942;52.462;10.846;2023-06-26T04:22:58;100570;;;
74485;BMP280;62942;52.462;10.846;2023-06-26T04:23:58;100570;;;
74485;BMP280;62942;52.462;10.846;2023-06-26T04:25:08;100560;;;
74485;BMP280;62942;52.462;10.846;2023-06-26T04:26:08;100560;;;
74485;BMP280;62942;52.462;10.846;2023-06-26T04:27:18;100560;;;
74485;BMP280;62942;52.462;10.846;2023-06-26T04:28:18;100560;;;
74485;BMP280;62942;52.462;10.846;2023-06-26T04:29:28;100560;;;
74485;BMP280;62942;52.462;10.846;2023-06-26T04:30:28;100550;;;
74485;BMP280;62942;52.462;10.846;2023-06-26T04:31:38;100560;;;
74485;BMP280;62942;52.462;10.846;2023-06-26T04:32:38;100550;;;
74485;BMP280;62942;52.462;10.846;2023-06-26T04:33:48;100550;;;
74485;BMP280;62942;52.462;10.846;2023-06-26T04:34:48;100560;;;
74485;BMP280;62942;52.462;10.846;2023-06-26T04:35:48;100550;;;
74485;BMP280;62942;52.462;10.846;2023-06-26T04:36:58;100560;;;
74485;BMP280;62942;52.462;10.846;2023-06-26T04:37:58;100550;;;
74485;BMP280;62942;52.462;10.846;2023-06-26T04:39:08;100560;;;
74485;BMP280;62942;52.462;10.846;2023-06-26T04:40:18;100550;;;
74485;BMP280;62942;52.462;10.846;2023-06-26T04:41:18;100560;;;
74485;BMP280;62942;52.462;10.846;2023-06-26T04:42:28;100560;;;
74485;BMP280;62942;52.462;10.846;2023-06-26T04:43:38;100560;;;
74485;BMP280;62942;52.462;10.846;2023-06-26T04:44:38;100560;;;
74485;BMP280;62942;52.462;10.846;2023-06-26T04:45:48;100550;;;
74485;BMP280;62942;52.462;10.846;2023-06-26T04:46:48;100550;;;
74485;BMP280;62942;52.462;10.846;2023-06-26T04:47:58;100550;;;
74485;BMP280;62942;52.462;10.846;2023-06-26T04:48:58;100550;;;
74485;BMP280;62942;52.462;10.846;2023-06-26T04:50:08;100550;;;
74485;BMP280;62942;52.462;10.846;2023-06-26T04:51:08;100550;;;
74485;BMP280;62942;52.462;10.846;2023-06-26T04:52:18;100550;;;
74485;BMP280;62942;52.462;10.846;2023-06-26T04:53:18;100550;;;
74485;BMP280;62942;52.462;10.846;2023-06-26T04:54:28;100550;;;
74485;BMP280;62942;52.462;10.846;2023-06-26T04:55:38;100550;;;
74485;BMP280;62942;52.462;10.846;2023-06-26T04:56:38;100550;;;
74485;BMP280;62942;52.462;10.846;2023-06-26T04:57:38;100530;;;
74485;BMP280;62942;52.462;10.846;2023-06-26T04:58:38;100530;;;
74485;BMP280;62942;52.462;10.846;2023-06-26T04:59:48;100530;;;
74485;BMP280;62942;52.462;10.846;2023-06-26T05:00:58;100530;;;
74485;BMP280;62942;52.462;10.846;2023-06-26T05:01:58;100540;;;
74485;BMP280;62942;52.462;10.846;2023-06-26T05:03:08;100530;;;
74485;BMP280;62942;52.462;10.846;2023-06-26T05:04:08;100530;;;
74485;BMP280;62942;52.462;10.846;2023-06-26T05:05:18;100540;;;
74485;BMP280;62942;52.462;10.846;2023-06-26T05:06:28;100520;;;
74485;BMP280;62942;52.462;10.846;2023-06-26T05:07:28;100530;;;
74485;BMP280;62942;52.462;10.846;2023-06-26T05:08:38;100530;;;
74485;BMP280;62942;52.462;10.846;2023-06-26T05:09:38;100520;;;
74485;BMP280;62942;52.462;10.846;2023-06-26T05:10:38;100520;;;
74485;BMP280;62942;52.462;10.846;2023-06-26T05:11:48;100520;;;
74485;BMP280;62942;52.462;10.846;2023-06-26T05:12:58;100530;;;
74485;BMP280;62942;52.462;10.846;2023-06-26T05:13:58;100530;;;
74485;BMP280;62942;52.462;10.846;2023-06-26T05:14:58;100530;;;
74485;BMP280;62942;52.462;10.846;2023-06-26T05:16:08;100530;;;
74485;BMP280;62942;52.462;10.846;2023-06-26T05:17:08;100520;;;
74485;BMP280;62942;52.462;10.846;2023-06-26T05:18:08;100520;;;
74485;BMP280;62942;52.462;10.846;2023-06-26T05:19:18;100520;;;
74485;BMP280;62942;52.462;10.846;2023-06-26T05:20:18;100520;;;
74485;BMP280;62942;52.462;10.846;2023-06-26T05:21:28;100520;;;
74485;BMP280;62942;52.462;10.846;2023-06-26T05:22:28;100520;;;
74485;BMP280;62942;52.462;10.846;2023-06-26T05:23:38;100530;;;
74485;BMP280;62942;52.462;10.846;2023-06-26T05:24:48;100510;;;
74485;BMP280;62942;52.462;10.846;2023-06-26T05:25:48;100510;;;
74485;BMP280;62942;52.462;10.846;2023-06-26T05:26:58;100510;;;
74485;BMP280;62942;52.462;10.846;2023-06-26T05:28:08;100510;;;
74485;BMP280;62942;52.462;10.846;2023-06-26T05:29:08;100520;;;
74485;BMP280;62942;52.462;10.846;2023-06-26T05:30:18;100510;;;
74485;BMP280;62942;52.462;10.846;2023-06-26T05:31:28;100510;;;
74485;BMP280;62942;52.462;10.846;2023-06-26T05:32:28;100510;;;
74485;BMP280;62942;52.462;10.846;2023-06-26T05:33:38;100500;;;
74485;BMP280;62942;52.462;10.846;2023-06-26T05:34:48;100510;;;
74485;BMP280;62942;52.462;10.846;2023-06-26T05:35:58;100510;;;
74485;BMP280;62942;52.462;10.846;2023-06-26T05:37:08;100510;;;
74485;BMP280;62942;52.462;10.846;2023-06-26T05:38:08;100510;;;
74485;BMP280;62942;52.462;10.846;2023-06-26T05:39:18;100500;;;
74485;BMP280;62942;52.462;10.846;2023-06-26T05:40:18;100510;;;
74485;BMP280;62942;52.462;10.846;2023-06-26T05:41:18;100500;;;
74485;BMP280;62942;52.462;10.846;2023-06-26T05:42:18;100500;;;
74485;BMP280;62942;52.462;10.846;2023-06-26T05:43:28;100500;;;
74485;BMP280;62942;52.462;10.846;2023-06-26T05:44:38;100500;;;
74485;BMP280;62942;52.462;10.846;2023-06-26T05:45:48;100490;;;
74485;BMP280;62942;52.462;10.846;2023-06-26T05:46:48;100490;;;
74485;BMP280;62942;52.462;10.846;2023-06-26T05:47:58;100490;;;
74485;BMP280;62942;52.462;10.846;2023-06-26T05:48:58;100490;;;
74485;BMP280;62942;52.462;10.846;2023-06-26T05:49:58;100490;;;
74485;BMP280;62942;52.462;10.846;2023-06-26T05:51:08;100490;;;
74485;BMP280;62942;52.462;10.846;2023-06-26T05:52:08;100490;;;
74485;BMP280;62942;52.462;10.846;2023-06-26T05:53:08;100490;;;
74485;BMP280;62942;52.462;10.846;2023-06-26T05:54:18;100490;;;
74485;BMP280;62942;52.462;10.846;2023-06-26T05:55:18;100500;;;
74485;BMP280;62942;52.462;10.846;2023-06-26T05:56:28;100490;;;
74485;BMP280;62942;52.462;10.846;2023-06-26T05:57:38;100490;;;
74485;BMP280;62942;52.462;10.846;2023-06-26T05:58:38;100490;;;
74485;BMP280;62942;52.462;10.846;2023-06-26T05:59:48;100490;;;
74485;BMP280;62942;52.462;10.846;2023-06-26T06:00:48;100480;;;
74485;BMP280;62942;52.462;10.846;2023-06-26T06:01:58;100480;;;
74485;BMP280;62942;52.462;10.846;2023-06-26T06:03:09;100490;;;
74485;BMP280;62942;52.462;10.846;2023-06-26T06:04:08;100480;;;
74485;BMP280;62942;52.462;10.846;2023-06-26T06:05:18;100480;;;
74485;BMP280;62942;52.462;10.846;2023-06-26T06:06:18;100480;;;
74485;BMP280;62942;52.462;10.846;2023-06-26T06:07:18;100480;;;
74485;BMP280;62942;52.462;10.846;2023-06-26T06:08:28;100480;;;
74485;BMP280;62942;52.462;10.846;2023-06-26T06:09:28;100480;;;
74485;BMP280;62942;52.462;10.846;2023-06-26T06:10:38;100480;;;
74485;BMP280;62942;52.462;10.846;2023-06-26T06:11:48;100480;;;
74485;BMP280;62942;52.462;10.846;2023-06-26T06:12:58;100470;;;
74485;BMP280;62942;52.462;10.846;2023-06-26T06:14:08;100470;;;
74485;BMP280;62942;52.462;10.846;2023-06-26T06:15:18;100470;;;
74485;BMP280;62942;52.462;10.846;2023-06-26T06:16:18;100480;;;
74485;BMP280;62942;52.462;10.846;2023-06-26T06:17:18;100470;;;
74485;BMP280;62942;52.462;10.846;2023-06-26T06:18:28;100470;;;
74485;BMP280;62942;52.462;10.846;2023-06-26T06:19:38;100470;;;
74485;BMP280;62942;52.462;10.846;2023-06-26T06:20:48;100470;;;
74485;BMP280;62942;52.462;10.846;2023-06-26T06:21:48;100470;;;
74485;BMP280;62942;52.462;10.846;2023-06-26T06:22:58;100470;;;
74485;BMP280;62942;52.462;10.846;2023-06-26T06:24:08;100470;;;
74485;BMP280;62942;52.462;10.846;2023-06-26T06:25:08;100470;;;
74485;BMP280;62942;52.462;10.846;2023-06-26T06:26:18;100460;;;
74485;BMP280;62942;52.462;10.846;2023-06-26T06:27:18;100470;;;
74485;BMP280;62942;52.462;10.846;2023-06-26T06:28:28;100470;;;
74485;BMP280;62942;52.462;10.846;2023-06-26T06:29:28;100460;;;
74485;BMP280;62942;52.462;10.846;2023-06-26T06:30:38;100460;;;
74485;BMP280;62942;52.462;10.846;2023-06-26T06:31:48;100460;;;
74485;BMP280;62942;52.462;10.846;2023-06-26T06:32:58;100460;;;
74485;BMP280;62942;52.462;10.846;2023-06-26T06:34:08;100460;;;
74485;BMP280;62942;52.462;10.846;2023-06-26T06:35:08;100460;;;
74485;BMP280;62942;52.462;10.846;2023-06-26T06:36:18;100460;;;
74485;BMP280;62942;52.462;10.846;2023-06-26T06:37:18;100460;;;
74485;BMP280;62942;52.462;10.846;2023-06-26T06:38:18;100460;;;
74485;BMP280;62942;52.462;10.846;2023-06-26T06:39:28;100450;;;
74485;BMP280;62942;52.462;10.846;2023-06-26T06:40:28;100460;;;
74485;BMP280;62942;52.462;10.846;2023-06-26T06:41:28;100460;;;
74485;BMP280;62942;52.462;10.846;2023-06-26T06:42:28;100460;;;
74485;BMP280;62942;52.462;10.846;2023-06-26T06:43:38;100460;;;
74485;BMP280;62942;52.462;10.846;2023-06-26T06:44:38;100460;;;
74485;BMP280;62942;52.462;10.846;2023-06-26T06:45:48;100440;;;
74485;BMP280;62942;52.462;10.846;2023-06-26T06:46:48;100460;;;
74485;BMP280;62942;52.462;10.846;2023-06-26T06:47:58;100450;;;
74485;BMP280;62942;52.462;10.846;2023-06-26T06:49:08;100450;;;
74485;BMP280;62942;52.462;10.846;2023-06-26T06:50:18;100450;;;
74485;BMP280;62942;52.462;10.846;2023-06-26T06:51:18;100460;;;
74485;BMP280;62942;52.462;10.846;2023-06-26T06:52:18;100460;;;
74485;BMP280;62942;52.462;10.846;2023-06-26T06:53:18;100460;;;
74485;BMP280;62942;52.462;10.846;2023-06-26T06:54:28;100450;;;
74485;BMP280;62942;52.462;10.846;2023-06-26T06:55:28;100440;;;